createdAt,value
2019-06-10T00:02:30.746Z,99.90
2019-06-10T00:04:58.250Z,99.90
2019-06-10T00:07:26.649Z,99.90
2019-06-10T00:09:56.120Z,99.90
2019-06-10T00:12:24.558Z,99.90
2019-06-10T00:14:52.963Z,99.90
2019-06-10T00:17:21.478Z,99.90
2019-06-10T00:19:51.151Z,99.90
2019-06-10T00:22:21.566Z,99.90
2019-06-10T00:24:52.174Z,99.90
2019-06-10T00:27:21.590Z,99.90
2019-06-10T00:29:51.306Z,99.90
2019-06-10T00:32:21.465Z,99.90
2019-06-10T00:34:50.834Z,99.90
2019-06-10T00:37:21.166Z,99.90
2019-06-10T00:39:51.208Z,99.90
2019-06-10T00:42:21.328Z,99.90
2019-06-10T00:44:50.898Z,99.90
2019-06-10T00:47:21.205Z,99.90
2019-06-10T00:49:51.299Z,99.90
2019-06-10T00:52:21.325Z,99.90
2019-06-10T00:54:51.723Z,99.90
2019-06-10T00:57:20.882Z,99.90
2019-06-10T00:59:50.778Z,99.90
2019-06-10T01:02:21.349Z,99.90
2019-06-10T01:04:51.396Z,99.90
2019-06-10T01:07:21.636Z,99.90
2019-06-10T01:09:51.611Z,99.90
2019-06-10T01:12:21.103Z,99.90
2019-06-10T01:14:51.734Z,99.90
2019-06-10T01:17:21.311Z,99.90
2019-06-10T01:19:50.909Z,99.90
2019-06-10T01:22:21.338Z,99.90
2019-06-10T01:24:51.078Z,99.90
2019-06-10T01:27:21.217Z,99.90
2019-06-10T01:29:51.070Z,99.90
2019-06-10T01:32:21.625Z,99.90
2019-06-10T01:34:50.820Z,99.90
2019-06-10T01:37:21.573Z,99.90
2019-06-10T01:39:51.382Z,99.90
2019-06-10T01:42:21.466Z,99.90
2019-06-10T01:44:50.674Z,99.90
2019-06-10T01:47:38.595Z,99.90
2019-06-10T01:50:07.660Z,99.90
2019-06-10T01:52:36.022Z,99.90
2019-06-10T01:55:07.552Z,99.90
2019-06-10T01:57:36.004Z,99.90
2019-06-10T02:00:09.219Z,99.90
2019-06-10T02:02:35.413Z,99.90
2019-06-10T02:05:05.749Z,99.90
2019-06-10T02:07:34.148Z,99.90
2019-06-10T02:10:02.842Z,99.90
2019-06-10T02:12:31.654Z,99.90
2019-06-10T02:15:01.280Z,99.90
2019-06-10T02:17:31.447Z,99.90
2019-06-10T02:20:01.122Z,99.90
2019-06-10T02:22:31.653Z,99.90
2019-06-10T02:25:01.216Z,99.90
2019-06-10T02:27:31.525Z,99.90
2019-06-10T02:30:03.843Z,99.90
2019-06-10T02:32:36.265Z,99.90
2019-06-10T02:35:08.814Z,99.90
2019-06-10T02:37:32.746Z,99.90
2019-06-10T02:40:04.128Z,99.90
2019-06-10T02:42:35.746Z,99.90
2019-06-10T02:45:07.013Z,99.90
2019-06-10T02:47:37.897Z,99.90
2019-06-10T02:50:09.452Z,99.90
2019-06-10T02:52:38.766Z,99.90
2019-06-10T02:55:13.385Z,99.90
2019-06-10T02:57:40.803Z,99.90
2019-06-10T03:00:20.864Z,99.90
2019-06-10T03:02:44.592Z,99.90
2019-06-10T03:05:13.930Z,99.90
2019-06-10T03:07:44.015Z,99.90
2019-06-10T03:10:13.715Z,99.90
2019-06-10T03:12:42.401Z,99.90
2019-06-10T03:15:12.644Z,99.90
2019-06-10T03:17:42.964Z,99.90
2019-06-10T03:20:12.281Z,99.90
2019-06-10T03:22:42.278Z,99.90
2019-06-10T03:25:12.970Z,99.90
2019-06-10T03:27:42.395Z,99.90
2019-06-10T03:30:16.943Z,99.90
2019-06-10T03:32:46.487Z,99.90
2019-06-10T03:35:13.263Z,99.90
2019-06-10T03:37:42.398Z,99.90
2019-06-10T03:40:13.057Z,99.90
2019-06-10T03:42:42.720Z,99.90
2019-06-10T03:45:12.683Z,99.90
2019-06-10T03:47:42.680Z,99.90
2019-06-10T03:50:13.242Z,99.90
2019-06-10T03:52:43.190Z,99.90
2019-06-10T03:55:12.280Z,99.90
2019-06-10T03:57:42.335Z,99.90
2019-06-10T04:00:14.069Z,99.90
2019-06-10T04:02:43.051Z,99.90
2019-06-10T04:05:13.251Z,99.90
2019-06-10T04:07:42.752Z,99.90
2019-06-10T04:10:12.575Z,99.90
2019-06-10T04:12:43.301Z,99.90
2019-06-10T04:15:12.339Z,99.90
2019-06-10T04:17:42.816Z,99.90
2019-06-10T04:20:13.239Z,99.90
2019-06-10T04:22:40.998Z,99.90
2019-06-10T04:25:09.409Z,99.90
2019-06-10T04:27:37.816Z,99.90
2019-06-10T04:30:07.253Z,99.90
2019-06-10T04:32:35.646Z,99.90
2019-06-10T04:35:04.030Z,99.90
2019-06-10T04:37:32.591Z,99.90
2019-06-10T04:40:02.909Z,99.90
2019-06-10T04:42:32.998Z,99.90
2019-06-10T04:45:03.175Z,99.90
2019-06-10T04:47:33.293Z,99.90
2019-06-10T04:50:03.131Z,99.90
2019-06-10T04:52:32.889Z,99.90
2019-06-10T04:55:02.553Z,99.90
2019-06-10T04:57:32.854Z,99.90
2019-06-10T05:00:02.777Z,99.90
2019-06-10T05:02:33.079Z,99.90
2019-06-10T05:05:02.900Z,99.90
2019-06-10T05:07:36.507Z,99.90
2019-06-10T05:10:03.197Z,99.90
2019-06-10T05:12:32.808Z,99.90
2019-06-10T05:15:03.489Z,99.90
2019-06-10T05:17:34.093Z,99.90
2019-06-10T05:20:02.514Z,99.90
2019-06-10T05:22:32.821Z,99.90
2019-06-10T05:25:02.511Z,99.90
2019-06-10T05:27:33.113Z,99.90
2019-06-10T05:30:02.258Z,99.90
2019-06-10T05:32:33.290Z,99.90
2019-06-10T05:35:03.303Z,99.90
2019-06-10T05:37:33.371Z,99.90
2019-06-10T05:40:02.247Z,99.90
2019-06-10T05:42:34.011Z,99.90
2019-06-10T05:45:03.071Z,99.90
2019-06-10T05:47:34.170Z,99.90
2019-06-10T05:50:03.208Z,99.90
2019-06-10T05:52:33.522Z,99.90
2019-06-10T05:55:02.892Z,99.90
2019-06-10T05:57:33.548Z,99.90
2019-06-10T06:00:10.768Z,99.90
2019-06-10T06:02:33.693Z,99.90
2019-06-10T06:05:02.569Z,99.90
2019-06-10T06:07:31.772Z,99.90
2019-06-10T06:10:02.487Z,99.90
2019-06-10T06:12:33.903Z,99.90
2019-06-10T06:15:02.386Z,99.90
2019-06-10T06:17:32.794Z,99.90
2019-06-10T06:20:02.719Z,99.90
2019-06-10T06:22:34.038Z,99.90
2019-06-10T06:25:03.858Z,99.90
2019-06-10T06:27:33.377Z,99.90
2019-06-10T06:30:07.043Z,99.90
2019-06-10T06:32:33.713Z,99.90
2019-06-10T06:35:02.169Z,99.90
2019-06-10T06:37:34.693Z,99.90
2019-06-10T06:40:02.808Z,99.90
2019-06-10T06:42:33.474Z,99.90
2019-06-10T06:45:02.998Z,99.90
2019-06-10T06:47:34.026Z,99.90
2019-06-10T06:50:02.716Z,99.90
2019-06-10T06:52:56.678Z,99.90
2019-06-10T06:55:02.525Z,99.90
2019-06-10T06:57:33.703Z,99.90
2019-06-10T07:00:22.444Z,99.90
2019-06-10T07:02:32.187Z,99.90
2019-06-10T07:05:03.146Z,99.90
2019-06-10T07:07:33.130Z,99.90
2019-06-10T07:10:03.369Z,99.90
2019-06-10T07:12:33.710Z,99.90
2019-06-10T07:15:04.247Z,99.90
2019-06-10T07:17:34.529Z,99.90
2019-06-10T07:20:05.200Z,99.90
2019-06-10T07:22:35.312Z,99.90
2019-06-10T07:25:06.660Z,99.90
2019-06-10T07:27:38.373Z,99.90
2019-06-10T07:30:11.865Z,99.90
2019-06-10T07:32:38.873Z,99.90
2019-06-10T07:35:07.106Z,99.90
2019-06-10T07:37:36.599Z,99.90
2019-06-10T07:40:08.739Z,99.90
2019-06-10T07:42:37.479Z,99.90
2019-06-10T07:45:10.367Z,99.90
2019-06-10T07:47:39.036Z,99.90
2019-06-10T07:50:07.667Z,99.90
2019-06-10T07:52:37.321Z,99.90
2019-06-10T07:55:06.763Z,99.90
2019-06-10T07:57:36.005Z,99.90
2019-06-10T08:00:08.125Z,99.90
2019-06-10T08:02:37.558Z,99.90
2019-06-10T08:05:06.622Z,99.90
2019-06-10T08:07:35.228Z,99.90
2019-06-10T08:10:08.673Z,99.90
2019-06-10T08:12:39.298Z,99.90
2019-06-10T08:15:07.748Z,99.90
2019-06-10T08:17:36.147Z,99.90
2019-06-10T08:20:05.619Z,99.60
2019-06-10T08:22:39.903Z,98.90
2019-06-10T08:25:06.634Z,98.40
2019-06-10T08:27:36.581Z,97.70
2019-06-10T08:30:21.203Z,97.50
2019-06-10T08:32:40.140Z,97.10
2019-06-10T08:35:09.499Z,96.40
2019-06-10T08:37:38.116Z,95.90
2019-06-10T08:40:06.812Z,95.60
2019-06-10T08:43:07.275Z,94.80
2019-06-10T08:45:06.929Z,94.30
2019-06-10T08:47:35.312Z,93.90
2019-06-10T08:50:05.161Z,93.80
2019-06-10T08:52:48.890Z,94.10
2019-06-10T08:55:04.805Z,94.30
2019-06-10T08:57:33.554Z,94.30
2019-06-10T09:00:10.659Z,93.70
2019-06-10T09:02:33.426Z,92.90
2019-06-10T09:05:03.707Z,92.10
2019-06-10T09:07:32.384Z,91.60
2019-06-10T09:10:03.041Z,91.00
2019-06-10T09:12:36.310Z,90.50
2019-06-10T09:15:03.744Z,90.00
2019-06-10T09:17:33.759Z,89.80
2019-06-10T09:20:02.944Z,90.30
2019-06-10T09:22:32.740Z,90.00
2019-06-10T09:25:02.909Z,90.20
2019-06-10T09:27:32.738Z,90.20
2019-06-10T09:30:03.037Z,90.30
2019-06-10T09:32:32.482Z,90.30
2019-06-10T09:35:03.399Z,90.20
2019-06-10T09:37:32.034Z,90.10
2019-06-10T09:40:03.354Z,90.00
2019-06-10T09:42:33.200Z,90.10
2019-06-10T09:45:02.600Z,89.80
2019-06-10T09:47:33.969Z,90.00
2019-06-10T09:50:03.172Z,90.00
2019-06-10T09:52:32.845Z,89.70
2019-06-10T09:55:02.785Z,89.10
2019-06-10T09:57:32.183Z,89.20
2019-06-10T10:00:03.074Z,88.10
2019-06-10T10:02:33.077Z,87.30
2019-06-10T10:05:00.765Z,87.70
2019-06-10T10:07:29.258Z,87.90
2019-06-10T10:09:57.638Z,87.50
2019-06-10T10:12:26.043Z,87.50
2019-06-10T10:14:56.374Z,87.80
2019-06-10T10:17:27.213Z,88.30
2019-06-10T10:19:57.140Z,87.70
2019-06-10T10:22:25.643Z,87.40
2019-06-10T10:24:56.446Z,87.70
2019-06-10T10:27:24.119Z,88.30
2019-06-10T10:29:56.991Z,88.20
2019-06-10T10:32:23.252Z,88.00
2019-06-10T10:34:56.108Z,87.60
2019-06-10T10:37:22.888Z,87.70
2019-06-10T10:39:54.562Z,87.50
2019-06-10T10:42:23.639Z,87.40
2019-06-10T10:44:58.386Z,88.20
2019-06-10T10:47:25.135Z,88.90
2019-06-10T10:49:55.508Z,89.60
2019-06-10T10:52:22.455Z,89.90
2019-06-10T10:54:53.877Z,90.00
2019-06-10T10:57:23.128Z,89.80
2019-06-10T10:59:54.217Z,89.70
2019-06-10T11:02:22.828Z,89.20
2019-06-10T11:04:55.111Z,88.80
2019-06-10T11:07:22.330Z,88.20
2019-06-10T11:09:55.182Z,87.60
2019-06-10T11:12:22.910Z,86.40
2019-06-10T11:14:54.453Z,85.50
2019-06-10T11:17:22.689Z,85.50
2019-06-10T11:19:53.952Z,85.80
2019-06-10T11:22:23.185Z,85.70
2019-06-10T11:24:53.586Z,85.40
2019-06-10T11:27:23.228Z,85.40
2019-06-10T11:29:53.566Z,86.00
2019-06-10T11:32:21.660Z,86.00
2019-06-10T11:34:50.222Z,85.70
2019-06-10T11:37:18.645Z,85.60
2019-06-10T11:39:48.069Z,86.00
2019-06-10T11:42:16.690Z,85.60
2019-06-10T11:44:46.288Z,86.40
2019-06-10T11:47:14.899Z,86.80
2019-06-10T11:49:43.572Z,87.00
2019-06-10T11:52:12.614Z,87.10
2019-06-10T11:54:53.658Z,87.30
2019-06-10T11:57:12.513Z,87.70
2019-06-10T11:59:43.276Z,87.70
2019-06-10T12:02:13.257Z,87.80
2019-06-10T12:04:41.290Z,87.30
2019-06-10T12:07:09.687Z,86.90
2019-06-10T12:09:38.101Z,87.30
2019-06-10T12:12:06.561Z,86.50
2019-06-10T12:14:34.983Z,86.90
2019-06-10T12:17:34.771Z,87.00
2019-06-10T12:19:34.158Z,87.00
2019-06-10T12:22:07.086Z,87.80
2019-06-10T12:24:33.900Z,88.60
2019-06-10T12:27:05.075Z,88.40
2019-06-10T12:29:32.669Z,88.40
2019-06-10T12:32:06.506Z,88.10
2019-06-10T12:34:33.308Z,88.10
2019-06-10T12:37:09.446Z,87.60
2019-06-10T12:39:31.203Z,87.70
2019-06-10T12:42:01.507Z,87.60
2019-06-10T12:44:29.654Z,88.20
2019-06-10T12:47:00.949Z,88.70
2019-06-10T12:49:28.127Z,89.50
2019-06-10T12:51:57.478Z,90.50
2019-06-10T12:54:26.264Z,91.20
2019-06-10T12:56:56.237Z,91.90
2019-06-10T12:59:24.942Z,93.40
2019-06-10T13:01:53.348Z,96.00
2019-06-10T13:04:21.774Z,98.20
2019-06-10T13:06:51.997Z,99.90
2019-06-10T13:09:20.267Z,99.90
2019-06-10T13:11:48.685Z,99.90
2019-06-10T13:14:18.407Z,99.90
2019-06-10T13:16:47.100Z,99.90
2019-06-10T13:19:15.502Z,99.90
2019-06-10T13:21:43.909Z,99.90
2019-06-10T13:24:15.172Z,99.90
2019-06-10T13:26:43.601Z,99.90
2019-06-10T13:29:16.881Z,99.90
2019-06-10T13:31:43.606Z,99.90
2019-06-10T13:34:14.614Z,99.90
2019-06-10T13:36:42.341Z,99.90
2019-06-10T13:39:13.006Z,99.90
2019-06-10T13:41:43.489Z,99.90
2019-06-10T13:44:15.346Z,99.90
2019-06-10T13:46:42.553Z,99.90
2019-06-10T13:49:13.051Z,99.90
2019-06-10T13:51:43.347Z,99.90
2019-06-10T13:54:13.817Z,99.90
2019-06-10T13:56:47.170Z,99.90
2019-06-10T13:59:14.057Z,99.90
2019-06-10T14:01:42.781Z,99.90
2019-06-10T14:04:20.458Z,99.90
2019-06-10T14:06:49.714Z,99.90
2019-06-10T14:09:16.429Z,99.90
2019-06-10T14:11:42.408Z,99.90
2019-06-10T14:14:14.041Z,99.90
2019-06-10T14:16:42.370Z,99.90
2019-06-10T14:19:15.894Z,99.90
2019-06-10T14:21:42.548Z,99.90
2019-06-10T14:24:15.472Z,99.90
2019-06-10T14:26:45.243Z,99.90
2019-06-10T14:29:14.244Z,99.90
2019-06-10T14:31:45.088Z,99.90
2019-06-10T14:34:16.240Z,99.90
2019-06-10T14:36:43.077Z,99.90
2019-06-10T14:39:13.160Z,99.90
2019-06-10T14:41:43.081Z,99.90
2019-06-10T14:44:17.075Z,99.90
2019-06-10T14:46:42.525Z,99.90
2019-06-10T14:49:13.591Z,99.90
2019-06-10T14:51:43.105Z,99.90
2019-06-10T14:54:12.134Z,99.90
2019-06-10T14:56:50.571Z,99.90
2019-06-10T14:59:16.607Z,99.90
2019-06-10T15:01:44.599Z,99.90
2019-06-10T15:04:15.639Z,99.90
2019-06-10T15:06:43.425Z,99.90
2019-06-10T15:09:12.014Z,99.90
2019-06-10T15:11:42.644Z,99.90
2019-06-10T15:14:12.846Z,99.90
2019-06-10T15:16:43.517Z,99.90
2019-06-10T15:19:17.382Z,99.90
2019-06-10T15:21:42.747Z,99.90
2019-06-10T15:24:27.821Z,99.90
2019-06-10T15:27:08.760Z,99.90
2019-06-10T15:29:26.258Z,99.90
2019-06-10T15:32:09.227Z,99.90
2019-06-10T15:34:24.896Z,99.90
2019-06-10T15:36:53.305Z,99.90
2019-06-10T15:39:24.142Z,99.90
2019-06-10T15:41:54.726Z,99.90
2019-06-10T15:44:41.446Z,99.90
2019-06-10T15:46:53.183Z,99.90
2019-06-10T15:49:26.111Z,99.90
2019-06-10T15:51:52.578Z,99.90
2019-06-10T15:54:25.095Z,99.90
2019-06-10T15:56:56.242Z,99.90
2019-06-10T15:59:21.500Z,99.90
2019-06-10T16:01:49.868Z,99.90
2019-06-10T16:04:19.310Z,99.90
2019-06-10T16:06:48.390Z,99.90
2019-06-10T16:09:17.012Z,99.90
2019-06-10T16:11:46.509Z,99.90
2019-06-10T16:14:14.906Z,99.90
2019-06-10T16:16:43.452Z,99.90
2019-06-10T16:19:13.311Z,99.90
2019-06-10T16:21:42.861Z,99.90
2019-06-10T16:24:14.691Z,99.90
2019-06-10T16:26:41.664Z,99.90
2019-06-10T16:29:12.163Z,99.90
2019-06-10T16:31:42.264Z,99.90
2019-06-10T16:34:12.577Z,99.90
2019-06-10T16:36:42.626Z,99.90
2019-06-10T16:39:12.552Z,99.90
2019-06-10T16:41:42.873Z,99.90
2019-06-10T16:44:13.347Z,99.90
2019-06-10T16:46:42.940Z,99.90
2019-06-10T16:49:12.769Z,99.90
2019-06-10T16:51:42.914Z,99.90
2019-06-10T16:54:13.026Z,99.90
2019-06-10T16:56:43.343Z,99.90
2019-06-10T16:59:12.318Z,99.90
2019-06-10T17:01:42.811Z,99.90
2019-06-10T17:04:13.842Z,99.90
2019-06-10T17:06:42.391Z,99.90
2019-06-10T17:09:13.282Z,99.90
2019-06-10T17:11:42.643Z,99.90
2019-06-10T17:14:12.576Z,99.90
2019-06-10T17:16:41.169Z,99.90
2019-06-10T17:19:09.574Z,99.90
2019-06-10T17:21:38.024Z,99.90
2019-06-10T17:24:06.529Z,99.90
2019-06-10T17:26:38.068Z,99.90
2019-06-10T17:29:05.537Z,99.90
2019-06-10T17:31:35.101Z,99.90
2019-06-10T17:34:03.798Z,99.90
2019-06-10T17:36:35.106Z,99.90
2019-06-10T17:39:03.090Z,99.90
2019-06-10T17:41:35.023Z,99.90
2019-06-10T17:44:02.666Z,99.90
2019-06-10T17:46:34.942Z,99.90
2019-06-10T17:49:02.617Z,99.90
2019-06-10T17:51:35.055Z,99.90
2019-06-10T17:54:02.407Z,99.90
2019-06-10T17:56:31.903Z,99.90
2019-06-10T17:59:03.376Z,99.90
2019-06-10T18:01:33.766Z,99.90
2019-06-10T18:04:02.519Z,99.90
2019-06-10T18:06:32.177Z,99.90
2019-06-10T18:09:03.857Z,99.90
2019-06-10T18:11:34.114Z,99.90
2019-06-10T18:14:02.653Z,99.90
2019-06-10T18:16:33.657Z,99.90
2019-06-10T18:19:03.324Z,99.90
2019-06-10T18:21:33.514Z,99.90
2019-06-10T18:24:07.388Z,99.90
2019-06-10T18:26:35.924Z,99.90
2019-06-10T18:29:08.104Z,99.90
2019-06-10T18:31:33.956Z,99.90
2019-06-10T18:34:02.480Z,99.90
2019-06-10T18:36:33.072Z,99.90
2019-06-10T18:39:02.953Z,99.90
2019-06-10T18:41:31.752Z,99.90
2019-06-10T18:44:02.209Z,99.90
2019-06-10T18:46:33.253Z,99.90
2019-06-10T18:49:02.740Z,99.90
2019-06-10T18:51:31.984Z,99.90
2019-06-10T18:54:01.467Z,99.90
2019-06-10T18:56:29.850Z,99.90
2019-06-10T18:59:13.514Z,99.90
2019-06-10T19:01:28.604Z,99.90
2019-06-10T19:03:57.015Z,99.90
2019-06-10T19:06:25.429Z,99.90
2019-06-10T19:08:53.839Z,99.90
2019-06-10T19:11:22.315Z,99.90
2019-06-10T19:13:52.761Z,99.90
2019-06-10T19:16:23.287Z,99.90
2019-06-10T19:18:52.872Z,99.90
2019-06-10T19:21:21.105Z,99.90
2019-06-10T19:23:49.521Z,99.90
2019-06-10T19:26:17.961Z,99.90
2019-06-10T19:28:46.351Z,99.90
2019-06-10T19:31:14.772Z,99.90
2019-06-10T19:33:45.076Z,99.90
2019-06-10T19:36:13.306Z,99.90
2019-06-10T19:38:44.103Z,99.90
2019-06-10T19:41:11.860Z,99.90
2019-06-10T19:43:41.508Z,99.90
2019-06-10T19:46:12.739Z,99.90
2019-06-10T19:48:47.968Z,99.90
2019-06-10T19:51:12.187Z,99.90
2019-06-10T19:53:43.763Z,99.90
2019-06-10T19:56:12.916Z,99.90
2019-06-10T19:58:42.989Z,99.90
2019-06-10T20:01:10.839Z,99.90
2019-06-10T20:03:39.747Z,99.90
2019-06-10T20:06:08.151Z,99.90
2019-06-10T20:08:37.904Z,99.90
2019-06-10T20:11:06.348Z,99.90
2019-06-10T20:13:34.745Z,99.90
2019-06-10T20:16:03.244Z,99.90
2019-06-10T20:18:33.857Z,99.90
2019-06-10T20:21:02.816Z,99.90
2019-06-10T20:23:33.392Z,99.90
2019-06-10T20:26:01.434Z,99.90
2019-06-10T20:28:31.996Z,99.90
2019-06-10T20:30:59.929Z,99.90
2019-06-10T20:33:39.237Z,99.90
2019-06-10T20:36:16.687Z,99.90
2019-06-10T20:38:38.371Z,99.90
2019-06-10T20:41:06.958Z,99.90
2019-06-10T20:43:35.377Z,99.90
2019-06-10T20:46:06.002Z,99.90
2019-06-10T20:48:34.092Z,99.90
2019-06-10T20:51:03.189Z,99.90
2019-06-10T20:53:33.767Z,99.90
2019-06-10T20:56:03.877Z,99.90
2019-06-10T20:58:33.115Z,99.90
2019-06-10T21:01:04.741Z,99.90
2019-06-10T21:03:32.952Z,99.90
2019-06-10T21:06:03.047Z,99.90
2019-06-10T21:08:33.328Z,99.90
2019-06-10T21:11:02.916Z,99.90
2019-06-10T21:13:33.540Z,99.90
2019-06-10T21:16:03.569Z,99.90
2019-06-10T21:18:33.273Z,99.90
2019-06-10T21:21:02.170Z,99.90
2019-06-10T21:23:30.588Z,99.90
2019-06-10T21:25:59.028Z,99.90
2019-06-10T21:28:27.436Z,99.90
2019-06-10T21:30:58.924Z,99.90
2019-06-10T21:33:25.928Z,99.90
2019-06-10T21:35:54.961Z,99.90
2019-06-10T21:38:23.506Z,99.90
2019-06-10T21:40:53.890Z,99.90
2019-06-10T21:43:22.475Z,99.90
2019-06-10T21:45:57.064Z,99.90
2019-06-10T21:48:22.961Z,99.90
2019-06-10T21:50:54.603Z,99.90
2019-06-10T21:53:22.362Z,99.90
2019-06-10T21:55:53.551Z,99.90
2019-06-10T21:58:22.584Z,99.90
2019-06-10T22:01:01.199Z,99.90
2019-06-10T22:03:23.437Z,99.90
2019-06-10T22:05:51.875Z,99.90
2019-06-10T22:08:20.712Z,99.90
2019-06-10T22:10:50.040Z,99.90
2019-06-10T22:13:18.698Z,99.90
2019-06-10T22:15:48.280Z,99.90
2019-06-10T22:18:16.783Z,99.90
2019-06-10T22:20:48.911Z,99.90
2019-06-10T22:23:17.435Z,99.90
2019-06-10T22:25:46.822Z,99.90
2019-06-10T22:28:15.375Z,99.90
2019-06-10T22:30:45.102Z,99.90
2019-06-10T22:33:13.495Z,99.90
2019-06-10T22:35:42.511Z,99.90
2019-06-10T22:38:13.110Z,99.90
2019-06-10T22:40:42.595Z,99.90
2019-06-10T22:43:12.973Z,99.90
2019-06-10T22:45:42.320Z,99.90
2019-06-10T22:48:12.109Z,99.90
2019-06-10T22:50:43.630Z,99.90
2019-06-10T22:53:12.647Z,99.90
2019-06-10T22:55:43.289Z,99.90
2019-06-10T22:58:14.244Z,99.90
2019-06-10T23:00:43.705Z,99.90
2019-06-10T23:03:13.105Z,99.90
2019-06-10T23:05:43.387Z,99.90
2019-06-10T23:08:12.585Z,99.90
2019-06-10T23:10:42.830Z,99.90
2019-06-10T23:13:13.343Z,99.90
2019-06-10T23:15:42.947Z,99.90
2019-06-10T23:18:13.565Z,99.90
2019-06-10T23:20:42.703Z,99.90
2019-06-10T23:23:12.682Z,99.90
2019-06-10T23:25:43.026Z,99.90
2019-06-10T23:28:12.967Z,99.90
2019-06-10T23:30:42.705Z,99.90
2019-06-10T23:33:12.404Z,99.90
2019-06-10T23:35:42.950Z,99.90
2019-06-10T23:38:13.308Z,99.90
2019-06-10T23:40:42.959Z,99.90
2019-06-10T23:43:13.223Z,99.90
2019-06-10T23:45:42.245Z,99.90
2019-06-10T23:48:13.183Z,99.90
2019-06-10T23:50:43.475Z,99.90
2019-06-10T23:53:13.207Z,99.90
2019-06-10T23:55:42.839Z,99.90
2019-06-10T23:58:13.127Z,99.90
